Time;durP1;ratioP1;P1;durP2;ratioP2;P2;SDS_P1;SDS_P2;PMS_P1;PMS_P2;Temp;Humidity;BMP_temperature;BMP_pressure;BME280_temperature;BME280_humidity;BME280_pressure;Samples;Min_cycle;Max_cycle;Signal;HPM_P1;HPM_P2
2023/01/07 00:01:25;;;;;;;23.25;12.50;;;21.00;99.90;;;;;;5032211;28;20028;-45
2023/01/07 00:03:52;;;;;;;21.98;13.55;;;21.00;99.90;;;;;;5033513;28;20117;-49
2023/01/07 00:06:26;;;;;;;18.70;12.43;;;21.00;99.90;;;;;;5020305;28;20025;-44
2023/01/07 00:08:53;;;;;;;26.02;12.65;;;21.00;99.90;;;;;;5033093;28;20265;-46
2023/01/07 00:11:27;;;;;;;20.05;13.80;;;21.00;99.90;;;;;;5032812;28;20037;-46
2023/01/07 00:13:55;;;;;;;23.48;13.10;;;20.90;99.90;;;;;;5032683;28;20061;-47
2023/01/07 00:16:23;;;;;;;19.63;13.38;;;20.90;99.90;;;;;;5032240;28;20028;-47
2023/01/07 00:18:51;;;;;;;25.88;14.07;;;21.00;99.90;;;;;;5031631;28;20496;-47
2023/01/07 00:21:18;;;;;;;26.75;13.60;;;20.90;99.90;;;;;;5033258;28;20029;-47
2023/01/07 00:23:45;;;;;;;22.33;13.57;;;21.00;99.90;;;;;;5032593;28;20029;-47
2023/01/07 00:26:16;;;;;;;26.67;13.95;;;21.00;99.90;;;;;;5032388;28;20028;-48
2023/01/07 00:28:44;;;;;;;21.95;13.20;;;20.90;99.90;;;;;;5032921;28;20104;-47
2023/01/07 00:31:19;;;;;;;20.10;13.57;;;20.90;99.90;;;;;;5031497;28;20026;-48
2023/01/07 00:36:26;;;;;;;24.70;14.02;;;20.90;99.90;;;;;;5033196;28;20072;-50
2023/01/07 00:38:59;;;;;;;20.02;13.23;;;20.90;99.90;;;;;;5032635;28;20413;-50
2023/01/07 00:41:25;;;;;;;21.35;13.15;;;20.90;99.90;;;;;;5031481;28;20025;-48
2023/01/07 00:43:51;;;;;;;23.25;13.27;;;20.90;99.90;;;;;;5015213;28;20071;-51
2023/01/07 00:46:17;;;;;;;24.02;13.27;;;20.90;99.90;;;;;;5032420;28;20095;-48
2023/01/07 00:48:43;;;;;;;21.92;14.02;;;20.90;99.90;;;;;;5032923;28;20047;-47
2023/01/07 00:51:11;;;;;;;19.40;11.43;;;20.90;99.90;;;;;;5032631;28;20025;-47
2023/01/07 00:53:37;;;;;;;25.95;14.20;;;20.90;99.90;;;;;;5032259;28;20036;-48
2023/01/07 00:56:03;;;;;;;24.38;14.05;;;20.90;99.90;;;;;;5032591;28;20091;-48
2023/01/07 00:58:28;;;;;;;17.05;12.60;;;20.90;99.90;;;;;;5032369;28;20029;-49
2023/01/07 01:00:56;;;;;;;21.27;12.75;;;20.90;99.90;;;;;;5032268;28;20358;-47
2023/01/07 01:03:22;;;;;;;19.70;12.75;;;20.90;99.90;;;;;;5031811;28;20429;-48
2023/01/07 01:05:49;;;;;;;22.10;13.05;;;20.90;99.90;;;;;;5032294;28;20053;-49
2023/01/07 01:08:16;;;;;;;18.08;12.75;;;20.90;99.90;;;;;;5032002;28;20021;-49
2023/01/07 01:10:43;;;;;;;23.30;14.43;;;20.90;99.90;;;;;;5032454;28;20478;-48
2023/01/07 01:13:12;;;;;;;21.90;13.88;;;20.80;99.90;;;;;;5031902;28;20052;-47
2023/01/07 01:15:45;;;;;;;22.45;14.15;;;20.90;99.90;;;;;;5031930;28;20048;-48
2023/01/07 01:18:11;;;;;;;23.58;13.38;;;20.80;99.90;;;;;;5032202;28;20060;-50
2023/01/07 01:20:37;;;;;;;18.30;13.25;;;20.90;99.90;;;;;;5032274;28;20033;-47
2023/01/07 01:23:04;;;;;;;17.00;12.60;;;20.80;99.90;;;;;;5031543;28;20029;-47
2023/01/07 01:25:30;;;;;;;20.60;13.20;;;20.90;99.90;;;;;;5032394;28;20026;-48
2023/01/07 01:27:55;;;;;;;20.25;13.23;;;20.80;99.90;;;;;;5031928;28;20017;-46
2023/01/07 01:30:21;;;;;;;21.90;13.90;;;20.80;99.90;;;;;;5031802;28;20033;-48
2023/01/07 01:32:47;;;;;;;20.65;14.13;;;20.80;99.90;;;;;;5032013;28;20018;-48
2023/01/07 01:35:13;;;;;;;22.17;14.13;;;20.80;99.90;;;;;;5032203;28;20025;-47
2023/01/07 01:37:38;;;;;;;22.98;12.77;;;20.80;99.90;;;;;;5047611;28;20051;-48
2023/01/07 01:40:05;;;;;;;24.88;13.68;;;20.80;99.90;;;;;;5031576;28;20120;-46
2023/01/07 01:42:32;;;;;;;20.97;13.87;;;20.80;99.90;;;;;;5031843;28;20017;-47
2023/01/07 01:45:02;;;;;;;25.35;13.27;;;20.80;99.90;;;;;;5032003;28;20447;-46
2023/01/07 01:47:37;;;;;;;18.63;13.73;;;20.80;99.90;;;;;;5031513;28;20104;-46
2023/01/07 01:50:21;;;;;;;18.00;12.80;;;20.80;99.90;;;;;;5031815;28;20044;-47
2023/01/07 01:52:49;;;;;;;21.88;13.68;;;20.70;99.90;;;;;;5030470;28;20076;-47
2023/01/07 01:55:19;;;;;;;18.90;13.63;;;20.80;99.90;;;;;;5032109;28;20055;-48
2023/01/07 01:57:49;;;;;;;20.10;13.13;;;20.70;99.90;;;;;;5031850;28;20037;-49
2023/01/07 02:00:15;;;;;;;21.35;13.63;;;20.70;99.90;;;;;;5031221;28;20030;-48
2023/01/07 02:02:49;;;;;;;18.38;12.82;;;20.70;99.90;;;;;;5030646;28;20017;-47
2023/01/07 02:05:15;;;;;;;23.77;14.43;;;20.70;99.90;;;;;;5031438;28;20032;-47
2023/01/07 02:07:41;;;;;;;20.73;13.32;;;20.70;99.90;;;;;;5030297;28;20021;-46
2023/01/07 02:10:17;;;;;;;21.48;14.05;;;20.70;99.90;;;;;;5030906;28;20045;-47
2023/01/07 02:12:54;;;;;;;22.73;13.35;;;20.70;99.90;;;;;;5031280;28;20030;-48
2023/01/07 02:15:27;;;;;;;;;;;20.70;99.90;;;;;;5030000;28;20030;-48
2023/01/07 02:18:47;;;;;;;25.38;12.95;;;20.70;99.90;;;;;;5029428;28;19928;-47
2023/01/07 02:21:30;;;;;;;23.52;14.18;;;20.70;99.90;;;;;;4987558;28;20030;-47
2023/01/07 02:24:32;;;;;;;19.27;13.32;;;20.70;99.90;;;;;;5025357;28;20028;-47
2023/01/07 02:27:32;;;;;;;23.05;14.27;;;20.70;99.90;;;;;;5031847;28;20025;-47
2023/01/07 02:30:10;;;;;;;19.77;12.80;;;20.70;99.90;;;;;;5032937;28;20280;-48
2023/01/07 02:32:36;;;;;;;19.75;13.30;;;20.60;99.90;;;;;;5032013;28;20022;-47
2023/01/07 02:35:04;;;;;;;21.27;13.30;;;20.60;99.90;;;;;;5031678;28;20555;-48
2023/01/07 02:38:07;;;;;;;19.42;12.55;;;20.60;99.90;;;;;;5032941;28;20045;-47
2023/01/07 02:40:47;;;;;;;19.15;13.35;;;20.60;99.90;;;;;;5033318;28;20527;-47
2023/01/07 02:43:48;;;;;;;19.98;12.65;;;20.60;99.90;;;;;;5034470;28;20358;-48
2023/01/07 02:46:31;;;;;;;16.70;12.57;;;20.60;99.90;;;;;;5035383;28;20029;-48
2023/01/07 02:48:59;;;;;;;21.85;13.75;;;20.60;99.90;;;;;;5050435;28;20547;-48
2023/01/07 02:51:35;;;;;;;19.92;13.82;;;20.60;99.90;;;;;;5035102;28;20025;-47
2023/01/07 02:54:02;;;;;;;20.52;13.15;;;20.60;99.90;;;;;;5035092;28;20385;-47
2023/01/07 02:56:38;;;;;;;23.85;12.98;;;20.50;99.90;;;;;;5034898;28;20026;-47
2023/01/07 02:59:22;;;;;;;18.50;12.15;;;20.50;99.90;;;;;;5034720;28;20045;-46
2023/01/07 03:02:03;;;;;;;18.42;12.13;;;20.60;99.90;;;;;;5035085;28;20013;-46
2023/01/07 03:04:44;;;;;;;16.48;11.88;;;20.50;99.90;;;;;;5033521;28;20126;-47
2023/01/07 03:07:34;;;;;;;20.95;13.23;;;20.50;99.90;;;;;;5050148;28;20029;-48
2023/01/07 03:10:11;;;;;;;20.58;12.82;;;20.50;99.90;;;;;;5034716;28;20021;-47
2023/01/07 03:12:37;;;;;;;;;;;20.50;99.90;;;;;;5035102;28;20029;-48
2023/01/07 03:15:27;;;;;;;17.48;12.82;;;20.50;99.90;;;;;;5034477;28;19905;-47
2023/01/07 03:18:16;;;;;;;17.33;12.50;;;20.50;99.90;;;;;;5034528;28;20358;-47
2023/01/07 03:20:46;;;;;;;18.00;12.18;;;20.40;99.90;;;;;;5034619;28;20025;-47
2023/01/07 03:23:13;;;;;;;18.98;11.77;;;20.50;99.90;;;;;;5034511;28;20120;-47
2023/01/07 03:25:42;;;;;;;;;;;20.50;99.90;;;;;;5034886;28;20029;-48
2023/01/07 03:28:11;;;;;;;18.17;12.38;;;20.50;99.90;;;;;;5033040;28;19905;-47
2023/01/07 03:30:37;;;;;;;19.40;12.13;;;20.50;99.90;;;;;;5034373;28;20026;-48
2023/01/07 03:33:22;;;;;;;17.38;12.10;;;20.40;99.90;;;;;;5034403;28;20022;-46
2023/01/07 03:35:54;;;;;;;17.52;11.25;;;20.40;99.90;;;;;;5034435;28;20096;-47
2023/01/07 03:38:22;;;;;;;18.50;11.85;;;20.40;99.90;;;;;;5034183;28;20060;-47
2023/01/07 03:40:50;;;;;;;15.32;10.88;;;20.40;99.90;;;;;;5034409;28;20025;-49
2023/01/07 03:43:19;;;;;;;16.55;11.15;;;20.40;99.90;;;;;;5032833;28;20033;-47
2023/01/07 03:45:46;;;;;;;13.98;10.75;;;20.40;99.90;;;;;;5034037;28;20537;-49
2023/01/07 03:48:12;;;;;;;15.10;11.02;;;20.40;99.90;;;;;;5034064;28;20029;-47
2023/01/07 03:50:38;;;;;;;14.77;10.20;;;20.40;99.90;;;;;;5034032;28;20428;-47
2023/01/07 03:53:03;;;;;;;15.98;10.57;;;20.30;99.90;;;;;;5034067;28;20036;-47
2023/01/07 03:55:30;;;;;;;13.73;10.32;;;20.40;99.90;;;;;;5034107;28;20021;-47
2023/01/07 03:57:56;;;;;;;17.73;10.52;;;20.30;99.90;;;;;;5032628;28;20048;-46
2023/01/07 04:00:22;;;;;;;14.88;10.57;;;20.30;99.90;;;;;;5034098;28;20092;-48
2023/01/07 04:02:48;;;;;;;17.67;11.07;;;20.30;99.90;;;;;;5034030;28;20393;-47
2023/01/07 04:05:14;;;;;;;13.15;10.05;;;20.30;99.90;;;;;;5033740;28;20389;-49
2023/01/07 04:07:40;;;;;;;16.50;11.05;;;20.30;99.90;;;;;;5033659;28;20040;-48
2023/01/07 04:10:07;;;;;;;31.50;11.93;;;20.30;99.90;;;;;;5033596;28;20029;-47
2023/01/07 04:12:33;;;;;;;15.00;10.35;;;20.30;99.90;;;;;;5033662;28;20109;-47
2023/01/07 04:14:58;;;;;;;15.52;11.00;;;20.30;99.90;;;;;;5033612;28;20129;-47
2023/01/07 04:17:24;;;;;;;16.50;10.10;;;20.30;99.90;;;;;;5033508;28;20029;-48
2023/01/07 04:19:50;;;;;;;14.85;10.20;;;20.30;99.90;;;;;;5032364;28;20065;-47
2023/01/07 04:22:16;;;;;;;13.25;9.93;;;20.30;99.90;;;;;;5033316;28;20137;-47
2023/01/07 04:24:42;;;;;;;15.38;10.52;;;20.30;99.90;;;;;;5033492;28;20025;-48
2023/01/07 04:27:08;;;;;;;12.25;9.43;;;20.20;99.90;;;;;;5033416;28;20164;-48
2023/01/07 04:29:33;;;;;;;17.30;11.40;;;20.20;99.90;;;;;;5033360;28;20465;-47
2023/01/07 04:31:59;;;;;;;16.23;10.52;;;20.20;99.90;;;;;;5033413;28;20029;-47
2023/01/07 04:34:25;;;;;;;16.38;10.55;;;20.20;99.90;;;;;;5033167;28;20021;-47
2023/01/07 04:36:51;;;;;;;14.50;10.02;;;20.20;99.90;;;;;;5033887;28;20091;-47
2023/01/07 04:39:17;;;;;;;14.63;9.70;;;20.20;99.90;;;;;;5032995;28;20030;-47
2023/01/07 04:41:43;;;;;;;14.75;9.27;;;20.20;99.90;;;;;;5033115;28;20026;-47
2023/01/07 04:44:09;;;;;;;16.00;10.38;;;20.20;99.90;;;;;;5032990;28;20102;-47
2023/01/07 04:46:35;;;;;;;12.75;9.50;;;20.20;99.90;;;;;;5032484;28;20552;-47
2023/01/07 04:49:01;;;;;;;12.68;9.20;;;20.20;99.90;;;;;;5032648;28;20025;-47
2023/01/07 04:51:26;;;;;;;14.82;9.73;;;20.20;99.90;;;;;;5032905;28;20025;-47
2023/01/07 04:53:52;;;;;;;15.13;9.27;;;20.20;99.90;;;;;;5033019;28;20094;-46
2023/01/07 04:56:18;;;;;;;13.82;9.90;;;20.20;99.90;;;;;;5032760;28;20052;-47
2023/01/07 04:58:44;;;;;;;12.00;9.05;;;20.20;99.90;;;;;;5032569;28;20037;-47
2023/01/07 05:01:10;;;;;;;13.73;8.93;;;20.10;99.90;;;;;;5033155;28;20018;-46
2023/01/07 05:03:36;;;;;;;13.82;8.80;;;20.10;99.90;;;;;;5032643;28;20029;-47
2023/01/07 05:06:02;;;;;;;11.90;8.35;;;20.10;99.90;;;;;;5032634;28;20511;-47
2023/01/07 05:08:28;;;;;;;12.80;9.15;;;20.10;99.90;;;;;;5032701;28;20029;-48
2023/01/07 05:10:54;;;;;;;14.52;9.27;;;20.10;99.90;;;;;;5032725;28;20215;-48
2023/01/07 05:13:21;;;;;;;14.32;8.65;;;20.10;99.90;;;;;;5048072;28;20110;-48
2023/01/07 05:15:47;;;;;;;15.15;8.70;;;20.10;99.90;;;;;;5032555;28;20056;-48
2023/01/07 05:18:13;;;;;;;12.02;8.93;;;20.10;99.90;;;;;;5032245;28;20037;-48
2023/01/07 05:20:39;;;;;;;13.38;9.02;;;20.10;99.90;;;;;;5032360;28;20022;-47
2023/01/07 05:23:05;;;;;;;12.75;9.50;;;20.10;99.90;;;;;;5032306;28;20022;-50
2023/01/07 05:25:32;;;;;;;13.13;8.02;;;20.00;99.90;;;;;;5032417;28;20101;-48
2023/01/07 05:27:58;;;;;;;13.43;8.65;;;20.10;99.90;;;;;;5032485;28;20382;-47
2023/01/07 05:30:24;;;;;;;11.57;8.55;;;20.00;99.90;;;;;;5032459;28;20029;-47
2023/01/07 05:32:50;;;;;;;13.68;8.15;;;20.00;99.90;;;;;;5032249;28;20025;-47
2023/01/07 05:35:15;;;;;;;11.00;8.15;;;20.00;99.90;;;;;;5032165;28;20056;-48
2023/01/07 05:37:41;;;;;;;14.07;8.52;;;20.00;99.90;;;;;;5032008;28;20079;-48
2023/01/07 05:40:08;;;;;;;13.15;8.30;;;20.00;99.90;;;;;;5032239;28;20075;-47
2023/01/07 05:42:34;;;;;;;10.20;7.93;;;20.00;99.90;;;;;;5032060;28;20373;-47
2023/01/07 05:44:59;;;;;;;11.10;8.32;;;20.00;99.90;;;;;;5032199;28;20022;-47
2023/01/07 05:47:25;;;;;;;11.18;8.77;;;20.00;99.90;;;;;;5047825;28;20056;-47
2023/01/07 05:49:51;;;;;;;10.25;8.05;;;20.00;99.90;;;;;;5032135;28;20025;-48
2023/01/07 05:52:17;;;;;;;10.05;7.75;;;20.00;99.90;;;;;;5032189;28;20032;-48
2023/01/07 05:54:42;;;;;;;11.10;7.78;;;20.00;99.90;;;;;;5030875;28;20029;-47
2023/01/07 05:57:08;;;;;;;11.05;8.60;;;20.00;99.90;;;;;;5031954;28;20112;-47
2023/01/07 05:59:34;;;;;;;12.88;8.65;;;20.00;99.90;;;;;;5033495;28;20109;-48
2023/01/07 06:02:00;;;;;;;10.43;7.65;;;20.00;99.90;;;;;;5035976;28;20022;-47
2023/01/07 06:04:27;;;;;;;12.05;7.85;;;20.00;99.90;;;;;;5036525;28;20021;-47
2023/01/07 06:06:52;;;;;;;12.18;8.63;;;20.00;99.90;;;;;;5036052;28;20056;-48
2023/01/07 06:09:18;;;;;;;10.32;7.97;;;19.90;99.90;;;;;;5035993;28;20045;-47
2023/01/07 06:11:44;;;;;;;10.65;7.93;;;20.00;99.90;;;;;;5035939;28;20377;-47
2023/01/07 06:14:10;;;;;;;10.57;8.55;;;19.90;99.90;;;;;;5035841;28;20021;-47
2023/01/07 06:16:36;;;;;;;10.70;7.53;;;19.90;99.90;;;;;;5035601;28;20032;-47
2023/01/07 06:19:02;;;;;;;10.18;7.80;;;19.90;99.90;;;;;;5035643;28;20392;-47
2023/01/07 06:21:28;;;;;;;13.30;8.05;;;19.90;99.90;;;;;;5035966;28;20021;-47
2023/01/07 06:23:55;;;;;;;10.13;7.40;;;19.90;99.90;;;;;;5035575;28;20022;-47
2023/01/07 06:26:21;;;;;;;10.67;8.17;;;19.90;99.90;;;;;;5035672;28;20028;-47
2023/01/07 06:28:46;;;;;;;10.68;7.85;;;19.90;99.90;;;;;;5035597;28;20022;-47
2023/01/07 06:31:12;;;;;;;12.38;7.60;;;19.90;99.90;;;;;;5035528;28;20060;-47
2023/01/07 06:33:39;;;;;;;9.88;7.63;;;19.90;99.90;;;;;;5035514;28;20485;-47
2023/01/07 06:36:06;;;;;;;11.23;7.90;;;19.90;99.90;;;;;;5035282;28;20406;-47
2023/01/07 06:38:32;;;;;;;11.70;6.93;;;19.90;99.90;;;;;;5034038;28;20132;-49
2023/01/07 06:40:58;;;;;;;12.20;7.05;;;19.90;99.90;;;;;;5035604;28;20105;-49
2023/01/07 06:43:25;;;;;;;12.30;7.40;;;19.90;99.90;;;;;;5050692;28;20030;-47
2023/01/07 06:45:50;;;;;;;11.48;7.75;;;19.90;99.90;;;;;;5035176;28;20551;-48
2023/01/07 06:48:16;;;;;;;10.68;7.68;;;19.90;99.90;;;;;;5035231;28;20025;-48
2023/01/07 06:50:43;;;;;;;10.35;7.80;;;19.90;99.90;;;;;;5035225;28;20044;-48
2023/01/07 06:53:09;;;;;;;8.90;6.88;;;19.90;99.90;;;;;;5035195;28;20022;-48
2023/01/07 06:55:35;;;;;;;8.90;7.32;;;19.80;99.90;;;;;;5035067;28;20036;-47
2023/01/07 06:58:00;;;;;;;12.20;7.45;;;19.90;99.90;;;;;;5035160;28;20120;-48
2023/01/07 07:00:26;;;;;;;8.73;6.65;;;19.80;99.90;;;;;;5034829;28;20125;-47
2023/01/07 07:02:52;;;;;;;9.95;6.90;;;19.90;99.90;;;;;;5034874;28;20460;-46
2023/01/07 07:05:18;;;;;;;8.60;6.30;;;19.80;99.90;;;;;;5034883;28;20105;-46
2023/01/07 07:07:44;;;;;;;8.55;6.60;;;19.80;99.90;;;;;;5034784;28;20030;-47
2023/01/07 07:10:10;;;;;;;9.35;6.43;;;19.80;99.90;;;;;;5034450;28;20036;-48
2023/01/07 07:12:36;;;;;;;8.68;6.20;;;19.80;99.90;;;;;;5034740;28;20385;-48
2023/01/07 07:15:04;;;;;;;10.38;6.75;;;19.80;99.90;;;;;;5034782;28;20025;-47
2023/01/07 07:17:29;;;;;;;10.07;7.15;;;19.80;99.90;;;;;;5033450;28;20048;-47
2023/01/07 07:19:55;;;;;;;8.77;6.28;;;19.80;99.90;;;;;;5034714;28;20108;-47
2023/01/07 07:22:21;;;;;;;8.95;6.38;;;19.80;99.90;;;;;;5034550;28;20022;-47
2023/01/07 07:24:47;;;;;;;8.95;6.03;;;19.80;99.90;;;;;;5034586;28;20429;-47
2023/01/07 07:27:12;;;;;;;11.10;7.28;;;19.80;99.90;;;;;;5034460;28;20393;-47
2023/01/07 07:29:38;;;;;;;8.07;6.43;;;19.70;99.90;;;;;;5049802;28;20045;-47
2023/01/07 07:32:04;;;;;;;8.88;6.30;;;19.70;99.90;;;;;;5034483;28;20100;-48
2023/01/07 07:34:30;;;;;;;8.43;6.35;;;19.70;99.90;;;;;;5034646;28;20033;-48
2023/01/07 07:36:56;;;;;;;10.13;6.78;;;19.70;99.90;;;;;;5034194;28;20049;-49
2023/01/07 07:39:22;;;;;;;8.15;6.40;;;19.70;99.90;;;;;;5032983;28;20095;-50
2023/01/07 07:41:47;;;;;;;8.88;6.50;;;19.70;99.90;;;;;;5034188;28;20024;-49
2023/01/07 07:44:13;;;;;;;7.65;5.88;;;19.70;99.90;;;;;;5034100;28;20036;-48
2023/01/07 07:46:39;;;;;;;9.02;6.28;;;19.70;99.90;;;;;;5034193;28;20021;-48
2023/01/07 07:49:05;;;;;;;8.13;6.70;;;19.70;99.90;;;;;;5033905;28;20017;-49
2023/01/07 07:51:31;;;;;;;10.40;7.10;;;19.70;99.90;;;;;;5034261;28;20029;-49
2023/01/07 07:53:57;;;;;;;10.95;6.57;;;19.70;99.90;;;;;;5033979;28;20018;-49
2023/01/07 07:56:23;;;;;;;10.40;6.40;;;19.70;99.90;;;;;;5033848;28;20465;-48
2023/01/07 07:58:49;;;;;;;10.27;6.70;;;19.70;99.90;;;;;;5033815;28;20041;-49
2023/01/07 08:01:14;;;;;;;9.85;7.10;;;19.70;99.90;;;;;;5033752;28;20418;-49
2023/01/07 08:03:40;;;;;;;12.68;7.32;;;19.70;99.90;;;;;;5033899;28;20452;-49
2023/01/07 08:06:06;;;;;;;8.98;6.00;;;19.80;99.90;;;;;;5032550;28;20026;-48
2023/01/07 08:08:32;;;;;;;8.30;7.00;;;19.80;99.90;;;;;;5049193;28;20374;-48
2023/01/07 08:10:58;;;;;;;8.50;6.70;;;19.80;99.90;;;;;;5033467;28;20086;-48
2023/01/07 08:13:24;;;;;;;8.20;6.07;;;19.90;99.90;;;;;;5033413;28;20565;-47
2023/01/07 08:15:50;;;;;;;7.75;6.25;;;19.90;99.90;;;;;;5048769;28;20037;-48
2023/01/07 08:18:17;;;;;;;8.70;6.53;;;19.90;99.90;;;;;;5033317;28;20037;-47
2023/01/07 08:20:43;;;;;;;7.55;6.13;;;19.90;99.90;;;;;;5033521;28;20136;-47
2023/01/07 08:23:09;;;;;;;7.05;5.95;;;20.00;99.90;;;;;;5032620;28;20504;-47
2023/01/07 08:25:36;;;;;;;8.73;6.38;;;20.00;99.90;;;;;;5033551;28;20033;-47
2023/01/07 08:28:02;;;;;;;8.93;6.47;;;20.00;99.90;;;;;;5033509;28;20029;-47
2023/01/07 08:30:28;;;;;;;9.70;6.22;;;20.00;99.90;;;;;;5033313;28;20025;-46
2023/01/07 08:32:55;;;;;;;8.07;6.00;;;20.10;99.90;;;;;;5033302;28;20092;-48
2023/01/07 08:35:20;;;;;;;10.00;6.13;;;20.10;99.90;;;;;;5033002;28;20036;-47
2023/01/07 08:37:46;;;;;;;8.30;5.93;;;20.10;99.90;;;;;;5032810;28;20041;-48
2023/01/07 08:40:12;;;;;;;12.27;7.25;;;20.20;99.90;;;;;;5033117;28;20028;-48
2023/01/07 08:42:39;;;;;;;10.60;6.45;;;20.20;99.90;;;;;;5031747;28;20492;-47
2023/01/07 08:45:07;;;;;;;7.90;6.07;;;20.20;99.90;;;;;;5033225;28;20029;-48
2023/01/07 08:47:33;;;;;;;;;;;20.30;99.90;;;;;;5033106;28;20107;-48
2023/01/07 08:49:59;;;;;;;10.38;5.93;;;20.30;99.90;;;;;;5033011;28;19905;-48
2023/01/07 08:52:25;;;;;;;7.95;5.85;;;20.30;99.90;;;;;;5033019;28;20018;-47
2023/01/07 08:54:51;;;;;;;8.93;7.32;;;20.40;99.90;;;;;;5031515;28;20022;-48
2023/01/07 08:57:17;;;;;;;9.57;6.13;;;20.40;99.90;;;;;;5032712;28;20029;-47
2023/01/07 08:59:43;;;;;;;8.02;6.22;;;20.40;99.90;;;;;;5024962;28;20565;-48
2023/01/07 09:02:18;;;;;;;8.50;6.70;;;20.40;99.90;;;;;;5021342;28;20097;-47
2023/01/07 09:04:44;;;;;;;8.52;6.20;;;20.50;99.90;;;;;;5024578;28;20022;-48
2023/01/07 09:07:11;;;;;;;9.32;6.80;;;20.50;99.90;;;;;;5027195;28;20032;-48
2023/01/07 09:09:37;;;;;;;9.25;5.97;;;20.60;99.90;;;;;;5032668;28;20021;-47
2023/01/07 09:12:04;;;;;;;7.30;6.07;;;20.60;99.90;;;;;;5031982;28;20389;-47
2023/01/07 09:14:30;;;;;;;9.25;6.30;;;20.60;99.90;;;;;;5021765;28;20056;-47
2023/01/07 09:16:56;;;;;;;7.80;6.00;;;20.70;99.90;;;;;;5020084;28;20385;-48
2023/01/07 09:19:22;;;;;;;8.40;6.07;;;20.70;99.90;;;;;;5025107;28;20045;-48
2023/01/07 09:21:50;;;;;;;9.13;6.00;;;20.70;99.90;;;;;;5018309;28;20049;-48
2023/01/07 09:24:16;;;;;;;;;;;20.70;99.90;;;;;;5030076;28;20083;-49
2023/01/07 09:26:42;;;;;;;8.73;5.63;;;20.80;99.90;;;;;;5032482;28;19905;-49
2023/01/07 09:29:08;;;;;;;9.30;6.20;;;20.80;99.90;;;;;;5028023;28;20433;-49
2023/01/07 09:31:34;;;;;;;13.50;6.28;;;20.80;99.90;;;;;;5012818;28;20084;-48
2023/01/07 09:34:00;;;;;;;12.63;6.55;;;20.90;99.90;;;;;;5026217;28;20033;-48
2023/01/07 09:36:26;;;;;;;12.90;6.28;;;20.90;99.90;;;;;;5032029;28;20090;-48
2023/01/07 09:38:53;;;;;;;13.27;6.22;;;20.90;99.90;;;;;;5032307;28;20487;-48
2023/01/07 09:41:57;;;;;;;12.02;7.03;;;20.90;99.90;;;;;;5032455;28;20110;-54
2023/01/07 09:44:43;;;;;;;10.38;5.47;;;21.00;99.90;;;;;;5032406;28;20026;-48
2023/01/07 09:47:12;;;;;;;12.15;6.50;;;21.00;99.90;;;;;;5032429;28;20497;-49
2023/01/07 09:49:39;;;;;;;16.10;6.07;;;21.10;99.90;;;;;;5032640;28;20022;-48
2023/01/07 09:52:12;;;;;;;16.00;6.32;;;21.20;99.90;;;;;;5020757;28;20034;-50
2023/01/07 09:54:39;;;;;;;12.07;6.20;;;21.20;99.90;;;;;;5012657;28;20030;-47
2023/01/07 09:57:07;;;;;;;11.98;6.65;;;21.20;99.90;;;;;;5024898;28;20033;-46
2023/01/07 09:59:33;;;;;;;11.25;6.22;;;21.30;99.90;;;;;;5025791;28;20042;-48
2023/01/07 10:02:15;;;;;;;9.02;5.38;;;21.30;99.90;;;;;;5012441;28;20030;-48
2023/01/07 10:04:56;;;;;;;25.95;7.63;;;21.40;99.90;;;;;;5012650;28;20025;-47
2023/01/07 10:07:33;;;;;;;17.55;6.30;;;21.40;99.90;;;;;;5012016;28;20018;-47
2023/01/07 10:10:23;;;;;;;12.23;6.80;;;21.50;99.90;;;;;;5016611;28;20046;-48
2023/01/07 10:13:07;;;;;;;17.35;6.60;;;21.50;99.90;;;;;;5011460;28;20064;-47
2023/01/07 10:15:57;;;;;;;27.00;7.65;;;21.60;99.90;;;;;;5011410;28;20363;-49
2023/01/07 10:18:30;;;;;;;34.70;8.07;;;21.60;99.90;;;;;;5011472;28;20117;-49
2023/01/07 10:21:14;;;;;;;38.33;9.27;;;21.60;99.90;;;;;;5012252;28;20037;-49
2023/01/07 10:23:44;;;;;;;29.35;8.45;;;21.70;99.90;;;;;;5012491;28;20024;-48
2023/01/07 10:26:36;;;;;;;39.38;8.40;;;21.70;99.90;;;;;;5011021;28;20026;-48
2023/01/07 10:29:50;;;;;;;21.38;7.00;;;21.80;99.90;;;;;;5011679;28;20038;-49
2023/01/07 10:32:27;;;;;;;22.70;7.05;;;21.80;99.90;;;;;;4998395;28;20034;-49
2023/01/07 10:34:57;;;;;;;30.58;8.02;;;21.90;99.90;;;;;;5011937;28;20030;-49
2023/01/07 10:37:30;;;;;;;29.67;8.55;;;21.90;99.90;;;;;;5011699;28;20517;-48
2023/01/07 10:40:11;;;;;;;26.38;7.80;;;21.90;99.90;;;;;;5011954;28;20037;-48
2023/01/07 10:42:40;;;;;;;30.20;7.50;;;22.00;99.90;;;;;;5011997;28;20569;-49
2023/01/07 10:45:24;;;;;;;19.73;7.10;;;22.00;99.90;;;;;;5012584;28;20531;-49
2023/01/07 10:48:11;;;;;;;45.70;8.20;;;22.00;99.90;;;;;;5015632;28;20060;-49
2023/01/07 10:50:55;;;;;;;27.98;7.20;;;22.10;99.90;;;;;;5014430;28;20026;-49
2023/01/07 10:53:33;;;;;;;27.23;7.32;;;22.10;99.90;;;;;;5015424;28;20033;-49
2023/01/07 10:56:06;;;;;;;;;;;22.20;99.90;;;;;;5015557;28;20026;-49
2023/01/07 10:58:43;;;;;;;22.63;7.20;;;22.20;99.90;;;;;;5015466;28;19913;-48
2023/01/07 11:01:23;;;;;;;22.42;7.45;;;22.30;99.90;;;;;;5015448;28;20022;-49
2023/01/07 11:03:55;;;;;;;18.02;7.13;;;22.30;99.90;;;;;;5015365;28;20029;-52
2023/01/07 11:06:39;;;;;;;21.77;7.28;;;22.40;99.90;;;;;;5015215;28;20034;-49
2023/01/07 11:09:22;;;;;;;22.42;8.00;;;22.40;99.90;;;;;;5015046;28;20034;-48
2023/01/07 11:11:50;;;;;;;23.50;8.10;;;22.40;99.90;;;;;;5015041;28;20026;-50
2023/01/07 11:14:22;;;;;;;23.85;7.15;;;22.40;99.90;;;;;;5015125;28;20025;-49
2023/01/07 11:16:57;;;;;;;21.13;8.15;;;22.50;99.90;;;;;;5015118;28;20057;-49
2023/01/07 11:19:43;;;;;;;19.42;7.65;;;22.50;99.90;;;;;;5014967;28;20040;-49
2023/01/07 11:22:32;;;;;;;18.05;7.50;;;22.60;99.90;;;;;;5015034;28;20018;-49
2023/01/07 11:25:00;;;;;;;14.93;7.20;;;22.60;99.90;;;;;;5014889;28;20482;-49
2023/01/07 11:27:27;;;;;;;;;;;22.60;99.90;;;;;;5013874;28;20018;-49
2023/01/07 11:30:04;;;;;;;;;;;22.70;99.90;;;;;;5015216;28;19909;-49
2023/01/07 11:32:37;;;;;;;20.23;7.55;;;22.70;99.90;;;;;;5014923;28;19913;-48
2023/01/07 11:35:14;;;;;;;16.23;7.15;;;22.70;99.90;;;;;;5014627;28;20402;-51
2023/01/07 11:37:43;;;;;;;21.30;7.75;;;22.80;99.90;;;;;;5014410;28;20038;-49
2023/01/07 11:40:11;;;;;;;16.02;7.45;;;22.80;99.90;;;;;;5014339;28;20496;-50
2023/01/07 11:42:50;;;;;;;23.27;8.50;;;22.80;99.90;;;;;;5014058;28;20030;-48
2023/01/07 11:45:22;;;;;;;17.23;7.10;;;22.80;99.90;;;;;;5014429;28;20084;-48
2023/01/07 11:48:00;;;;;;;16.13;7.13;;;22.80;99.90;;;;;;5014014;28;20034;-47
2023/01/07 11:50:37;;;;;;;13.32;7.72;;;22.90;99.90;;;;;;5013099;28;20026;-48
2023/01/07 11:53:12;;;;;;;15.45;7.30;;;22.90;99.90;;;;;;5013833;28;20017;-47
2023/01/07 11:55:39;;;;;;;14.65;6.35;;;22.90;99.90;;;;;;5013996;28;20030;-48
2023/01/07 11:58:16;;;;;;;14.50;7.60;;;22.90;99.90;;;;;;5012474;28;20493;-47
2023/01/07 12:00:42;;;;;;;17.83;6.95;;;23.00;99.90;;;;;;5012453;28;20026;-47
2023/01/07 12:03:12;;;;;;;16.85;6.40;;;23.00;99.90;;;;;;5012049;28;20030;-47
2023/01/07 12:05:40;;;;;;;17.42;7.40;;;23.00;99.90;;;;;;5012662;28;20101;-47
2023/01/07 12:08:17;;;;;;;14.40;7.60;;;23.00;99.90;;;;;;5012625;28;20363;-47
2023/01/07 12:10:43;;;;;;;20.20;7.00;;;23.10;99.90;;;;;;5012982;28;20033;-49
2023/01/07 12:13:22;;;;;;;14.20;6.90;;;23.10;99.90;;;;;;5013291;28;20076;-49
2023/01/07 12:15:52;;;;;;;14.95;6.50;;;23.10;99.90;;;;;;5013640;28;20420;-48
2023/01/07 12:18:35;;;;;;;16.88;6.57;;;23.10;99.90;;;;;;5013771;28;20423;-48
2023/01/07 12:21:37;;;;;;;14.57;6.70;;;23.10;99.90;;;;;;5013581;28;20026;-48
2023/01/07 12:24:27;;;;;;;13.23;6.68;;;23.20;99.90;;;;;;5013505;28;20021;-48
2023/01/07 12:27:15;;;;;;;16.15;6.90;;;23.20;99.90;;;;;;5013486;28;20022;-48
2023/01/07 12:30:19;;;;;;;13.82;7.28;;;23.20;99.90;;;;;;5013352;28;20108;-49
2023/01/07 12:33:16;;;;;;;14.65;7.85;;;23.20;99.90;;;;;;5013760;28;20474;-48
2023/01/07 12:35:44;;;;;;;10.27;6.70;;;23.30;99.90;;;;;;5031478;28;20083;-48
2023/01/07 12:38:41;;;;;;;16.13;7.07;;;23.30;99.90;;;;;;5031354;28;20053;-48
2023/01/07 12:41:18;;;;;;;10.32;6.35;;;23.30;99.90;;;;;;5029732;28;20022;-48
2023/01/07 12:43:50;;;;;;;13.50;7.63;;;23.30;99.90;;;;;;5029461;28;20044;-48
2023/01/07 12:46:18;;;;;;;11.30;6.55;;;23.30;99.90;;;;;;5029415;28;20109;-50
2023/01/07 12:49:03;;;;;;;;;;;23.30;99.90;;;;;;5021852;28;20022;-49
2023/01/07 12:51:44;;;;;;;11.10;6.53;;;23.40;99.90;;;;;;5025395;28;19909;-48
2023/01/07 12:54:36;;;;;;;16.38;6.68;;;23.40;99.90;;;;;;5030552;28;20026;-49
2023/01/07 12:57:31;;;;;;;12.65;7.05;;;23.40;99.90;;;;;;5029456;28;20113;-49
2023/01/07 13:00:07;;;;;;;9.65;5.88;;;23.50;99.90;;;;;;5022733;28;20713;-50